sensor_id;sensor_type;location;lat;lon;timestamp;P1;durP1;ratioP1;P2;durP2;ratioP2
68300;SDS011;55146;47.468;18.806;2024-01-11T00:01:22;44.87;;;21.87;;
68300;SDS011;55146;47.468;18.806;2024-01-11T00:03:48;48.73;;;24.60;;
68300;SDS011;55146;47.468;18.806;2024-01-11T00:06:13;49.00;;;23.17;;
68300;SDS011;55146;47.468;18.806;2024-01-11T00:08:38;42.87;;;22.30;;
68300;SDS011;55146;47.468;18.806;2024-01-11T00:11:04;46.47;;;22.13;;
68300;SDS011;55146;47.468;18.806;2024-01-11T00:13:29;44.55;;;23.60;;
68300;SDS011;55146;47.468;18.806;2024-01-11T00:15:55;42.97;;;22.77;;
68300;SDS011;55146;47.468;18.806;2024-01-11T00:18:20;45.47;;;22.97;;
68300;SDS011;55146;47.468;18.806;2024-01-11T00:20:45;45.10;;;22.67;;
68300;SDS011;55146;47.468;18.806;2024-01-11T00:23:11;43.67;;;22.07;;
68300;SDS011;55146;47.468;18.806;2024-01-11T00:25:36;41.13;;;21.90;;
68300;SDS011;55146;47.468;18.806;2024-01-11T00:28:02;43.70;;;22.83;;
68300;SDS011;55146;47.468;18.806;2024-01-11T00:30:27;44.83;;;21.60;;
68300;SDS011;55146;47.468;18.806;2024-01-11T00:32:52;40.43;;;21.90;;
68300;SDS011;55146;47.468;18.806;2024-01-11T00:35:18;44.87;;;22.37;;
68300;SDS011;55146;47.468;18.806;2024-01-11T00:37:44;40.35;;;20.95;;
68300;SDS011;55146;47.468;18.806;2024-01-11T00:40:09;43.93;;;21.23;;
68300;SDS011;55146;47.468;18.806;2024-01-11T00:42:35;44.63;;;20.93;;
68300;SDS011;55146;47.468;18.806;2024-01-11T00:45:00;46.47;;;23.45;;
68300;SDS011;55146;47.468;18.806;2024-01-11T00:47:26;40.60;;;22.17;;
68300;SDS011;55146;47.468;18.806;2024-01-11T00:49:52;48.28;;;21.73;;
68300;SDS011;55146;47.468;18.806;2024-01-11T00:52:17;50.00;;;22.80;;
68300;SDS011;55146;47.468;18.806;2024-01-11T00:54:42;48.10;;;22.67;;
68300;SDS011;55146;47.468;18.806;2024-01-11T00:57:08;41.47;;;22.57;;
68300;SDS011;55146;47.468;18.806;2024-01-11T00:59:33;44.15;;;20.77;;
68300;SDS011;55146;47.468;18.806;2024-01-11T01:01:58;46.70;;;23.15;;
68300;SDS011;55146;47.468;18.806;2024-01-11T01:04:24;47.80;;;23.37;;
68300;SDS011;55146;47.468;18.806;2024-01-11T01:06:49;47.63;;;22.87;;
68300;SDS011;55146;47.468;18.806;2024-01-11T01:09:14;43.53;;;23.60;;
68300;SDS011;55146;47.468;18.806;2024-01-11T01:11:40;45.90;;;22.47;;
68300;SDS011;55146;47.468;18.806;2024-01-11T01:14:05;42.60;;;22.83;;
68300;SDS011;55146;47.468;18.806;2024-01-11T01:16:31;49.67;;;23.40;;
68300;SDS011;55146;47.468;18.806;2024-01-11T01:18:56;48.80;;;24.33;;
68300;SDS011;55146;47.468;18.806;2024-01-11T01:21:22;51.57;;;24.23;;
68300;SDS011;55146;47.468;18.806;2024-01-11T01:23:47;47.77;;;23.63;;
68300;SDS011;55146;47.468;18.806;2024-01-11T01:26:12;44.70;;;21.07;;
68300;SDS011;55146;47.468;18.806;2024-01-11T01:28:38;47.50;;;23.23;;
68300;SDS011;55146;47.468;18.806;2024-01-11T01:31:05;42.10;;;21.40;;
68300;SDS011;55146;47.468;18.806;2024-01-11T01:33:30;39.93;;;23.37;;
68300;SDS011;55146;47.468;18.806;2024-01-11T01:35:55;45.42;;;20.98;;
68300;SDS011;55146;47.468;18.806;2024-01-11T01:38:21;46.37;;;22.83;;
68300;SDS011;55146;47.468;18.806;2024-01-11T01:40:46;46.50;;;22.20;;
68300;SDS011;55146;47.468;18.806;2024-01-11T01:43:11;44.73;;;22.63;;
68300;SDS011;55146;47.468;18.806;2024-01-11T01:45:38;45.05;;;22.50;;
68300;SDS011;55146;47.468;18.806;2024-01-11T01:48:03;46.50;;;22.37;;
68300;SDS011;55146;47.468;18.806;2024-01-11T01:50:29;43.28;;;21.48;;
68300;SDS011;55146;47.468;18.806;2024-01-11T01:52:55;45.73;;;23.33;;
68300;SDS011;55146;47.468;18.806;2024-01-11T01:55:21;41.10;;;21.12;;
68300;SDS011;55146;47.468;18.806;2024-01-11T01:57:47;40.80;;;23.23;;
68300;SDS011;55146;47.468;18.806;2024-01-11T02:00:14;47.92;;;24.48;;
68300;SDS011;55146;47.468;18.806;2024-01-11T02:02:41;42.73;;;21.40;;
68300;SDS011;55146;47.468;18.806;2024-01-11T02:05:09;46.47;;;21.62;;
68300;SDS011;55146;47.468;18.806;2024-01-11T02:07:36;43.97;;;23.23;;
68300;SDS011;55146;47.468;18.806;2024-01-11T02:10:02;41.67;;;21.90;;
68300;SDS011;55146;47.468;18.806;2024-01-11T02:12:28;37.08;;;20.98;;
68300;SDS011;55146;47.468;18.806;2024-01-11T02:14:54;49.63;;;24.20;;
68300;SDS011;55146;47.468;18.806;2024-01-11T02:17:20;43.37;;;22.60;;
68300;SDS011;55146;47.468;18.806;2024-01-11T02:19:45;50.05;;;24.12;;
68300;SDS011;55146;47.468;18.806;2024-01-11T02:22:15;42.60;;;24.33;;
68300;SDS011;55146;47.468;18.806;2024-01-11T02:24:47;49.25;;;25.83;;
68300;SDS011;55146;47.468;18.806;2024-01-11T02:27:12;49.67;;;23.83;;
68300;SDS011;55146;47.468;18.806;2024-01-11T02:29:38;50.60;;;22.62;;
68300;SDS011;55146;47.468;18.806;2024-01-11T02:32:03;48.93;;;22.63;;
68300;SDS011;55146;47.468;18.806;2024-01-11T02:34:31;46.50;;;22.33;;
68300;SDS011;55146;47.468;18.806;2024-01-11T02:36:56;46.50;;;23.63;;
68300;SDS011;55146;47.468;18.806;2024-01-11T02:39:23;42.90;;;21.55;;
68300;SDS011;55146;47.468;18.806;2024-01-11T02:41:50;46.35;;;23.12;;
68300;SDS011;55146;47.468;18.806;2024-01-11T02:44:16;43.08;;;20.65;;
68300;SDS011;55146;47.468;18.806;2024-01-11T02:46:42;45.63;;;21.85;;
68300;SDS011;55146;47.468;18.806;2024-01-11T02:49:07;51.17;;;21.63;;
68300;SDS011;55146;47.468;18.806;2024-01-11T02:51:33;43.83;;;20.80;;
68300;SDS011;55146;47.468;18.806;2024-01-11T02:53:58;40.23;;;20.87;;
68300;SDS011;55146;47.468;18.806;2024-01-11T02:56:24;40.10;;;20.15;;
68300;SDS011;55146;47.468;18.806;2024-01-11T02:58:49;42.07;;;22.43;;
68300;SDS011;55146;47.468;18.806;2024-01-11T03:01:15;43.53;;;21.70;;
68300;SDS011;55146;47.468;18.806;2024-01-11T03:03:40;34.55;;;19.17;;
68300;SDS011;55146;47.468;18.806;2024-01-11T03:06:06;44.53;;;21.30;;
68300;SDS011;55146;47.468;18.806;2024-01-11T03:08:31;43.07;;;22.70;;
68300;SDS011;55146;47.468;18.806;2024-01-11T03:10:56;46.43;;;23.17;;
68300;SDS011;55146;47.468;18.806;2024-01-11T03:13:22;46.58;;;23.25;;
68300;SDS011;55146;47.468;18.806;2024-01-11T03:15:48;44.60;;;21.33;;
68300;SDS011;55146;47.468;18.806;2024-01-11T03:18:13;45.60;;;21.87;;
68300;SDS011;55146;47.468;18.806;2024-01-11T03:20:39;48.45;;;22.98;;
68300;SDS011;55146;47.468;18.806;2024-01-11T03:23:05;42.33;;;22.40;;
68300;SDS011;55146;47.468;18.806;2024-01-11T03:25:30;51.28;;;22.40;;
68300;SDS011;55146;47.468;18.806;2024-01-11T03:27:56;52.20;;;23.70;;
68300;SDS011;55146;47.468;18.806;2024-01-11T03:30:23;48.42;;;21.83;;
68300;SDS011;55146;47.468;18.806;2024-01-11T03:32:48;47.00;;;22.27;;
68300;SDS011;55146;47.468;18.806;2024-01-11T03:35:13;44.10;;;21.60;;
68300;SDS011;55146;47.468;18.806;2024-01-11T03:37:39;42.83;;;22.83;;
68300;SDS011;55146;47.468;18.806;2024-01-11T03:40:04;51.37;;;24.33;;
68300;SDS011;55146;47.468;18.806;2024-01-11T03:42:30;45.03;;;22.33;;
68300;SDS011;55146;47.468;18.806;2024-01-11T03:44:55;52.50;;;24.53;;
68300;SDS011;55146;47.468;18.806;2024-01-11T03:47:21;46.20;;;22.83;;
68300;SDS011;55146;47.468;18.806;2024-01-11T03:49:47;49.47;;;22.85;;
68300;SDS011;55146;47.468;18.806;2024-01-11T03:52:12;46.60;;;24.20;;
68300;SDS011;55146;47.468;18.806;2024-01-11T03:54:37;44.60;;;21.73;;
68300;SDS011;55146;47.468;18.806;2024-01-11T03:57:03;47.45;;;23.75;;
68300;SDS011;55146;47.468;18.806;2024-01-11T03:59:28;45.80;;;20.47;;
68300;SDS011;55146;47.468;18.806;2024-01-11T04:01:54;41.43;;;21.53;;
68300;SDS011;55146;47.468;18.806;2024-01-11T04:04:20;47.03;;;23.23;;
68300;SDS011;55146;47.468;18.806;2024-01-11T04:06:47;47.15;;;23.50;;
68300;SDS011;55146;47.468;18.806;2024-01-11T04:09:13;48.93;;;23.30;;
68300;SDS011;55146;47.468;18.806;2024-01-11T04:11:38;49.47;;;22.75;;
68300;SDS011;55146;47.468;18.806;2024-01-11T04:14:04;48.87;;;24.03;;
68300;SDS011;55146;47.468;18.806;2024-01-11T04:16:29;56.47;;;23.67;;
68300;SDS011;55146;47.468;18.806;2024-01-11T04:18:54;46.53;;;22.47;;
68300;SDS011;55146;47.468;18.806;2024-01-11T04:21:21;41.25;;;21.90;;
68300;SDS011;55146;47.468;18.806;2024-01-11T04:23:47;46.20;;;21.40;;
68300;SDS011;55146;47.468;18.806;2024-01-11T04:26:12;47.60;;;21.90;;
68300;SDS011;55146;47.468;18.806;2024-01-11T04:28:38;53.53;;;24.17;;
68300;SDS011;55146;47.468;18.806;2024-01-11T04:31:03;54.50;;;25.17;;
68300;SDS011;55146;47.468;18.806;2024-01-11T04:33:29;44.23;;;23.03;;
68300;SDS011;55146;47.468;18.806;2024-01-11T04:35:54;44.40;;;21.70;;
68300;SDS011;55146;47.468;18.806;2024-01-11T04:38:19;45.70;;;23.80;;
68300;SDS011;55146;47.468;18.806;2024-01-11T04:40:45;44.88;;;22.33;;
68300;SDS011;55146;47.468;18.806;2024-01-11T04:43:10;50.70;;;23.02;;
68300;SDS011;55146;47.468;18.806;2024-01-11T04:45:35;51.37;;;23.53;;
68300;SDS011;55146;47.468;18.806;2024-01-11T04:48:01;44.77;;;22.63;;
68300;SDS011;55146;47.468;18.806;2024-01-11T04:50:26;51.00;;;22.60;;
68300;SDS011;55146;47.468;18.806;2024-01-11T04:52:51;43.43;;;23.47;;
68300;SDS011;55146;47.468;18.806;2024-01-11T04:55:17;49.23;;;24.77;;
68300;SDS011;55146;47.468;18.806;2024-01-11T04:57:42;60.30;;;23.60;;
68300;SDS011;55146;47.468;18.806;2024-01-11T05:00:07;50.28;;;22.37;;
68300;SDS011;55146;47.468;18.806;2024-01-11T05:02:33;49.33;;;23.73;;
68300;SDS011;55146;47.468;18.806;2024-01-11T05:04:58;52.03;;;23.00;;
68300;SDS011;55146;47.468;18.806;2024-01-11T05:07:24;46.63;;;22.33;;
68300;SDS011;55146;47.468;18.806;2024-01-11T05:09:49;45.07;;;23.13;;
68300;SDS011;55146;47.468;18.806;2024-01-11T05:12:14;50.00;;;22.77;;
68300;SDS011;55146;47.468;18.806;2024-01-11T05:14:41;44.40;;;22.27;;
68300;SDS011;55146;47.468;18.806;2024-01-11T05:17:06;51.53;;;23.45;;
68300;SDS011;55146;47.468;18.806;2024-01-11T05:19:32;54.93;;;23.30;;
68300;SDS011;55146;47.468;18.806;2024-01-11T05:21:58;52.92;;;21.73;;
68300;SDS011;55146;47.468;18.806;2024-01-11T05:24:23;45.97;;;23.80;;
68300;SDS011;55146;47.468;18.806;2024-01-11T05:26:48;44.47;;;22.10;;
68300;SDS011;55146;47.468;18.806;2024-01-11T05:29:14;42.40;;;21.50;;
68300;SDS011;55146;47.468;18.806;2024-01-11T05:31:39;42.17;;;21.20;;
68300;SDS011;55146;47.468;18.806;2024-01-11T05:34:04;46.23;;;21.90;;
68300;SDS011;55146;47.468;18.806;2024-01-11T05:36:30;44.37;;;21.97;;
68300;SDS011;55146;47.468;18.806;2024-01-11T05:38:55;49.23;;;23.83;;
68300;SDS011;55146;47.468;18.806;2024-01-11T05:41:20;42.80;;;21.85;;
68300;SDS011;55146;47.468;18.806;2024-01-11T05:43:46;41.55;;;21.45;;
68300;SDS011;55146;47.468;18.806;2024-01-11T05:46:11;43.37;;;21.23;;
68300;SDS011;55146;47.468;18.806;2024-01-11T05:48:36;42.43;;;22.67;;
68300;SDS011;55146;47.468;18.806;2024-01-11T05:51:02;43.17;;;22.43;;
68300;SDS011;55146;47.468;18.806;2024-01-11T05:53:27;39.33;;;21.13;;
68300;SDS011;55146;47.468;18.806;2024-01-11T05:55:53;44.80;;;21.93;;
68300;SDS011;55146;47.468;18.806;2024-01-11T05:58:19;42.42;;;22.77;;
68300;SDS011;55146;47.468;18.806;2024-01-11T06:00:45;43.35;;;22.25;;
68300;SDS011;55146;47.468;18.806;2024-01-11T06:03:13;44.97;;;22.20;;
68300;SDS011;55146;47.468;18.806;2024-01-11T06:05:39;45.33;;;21.42;;
68300;SDS011;55146;47.468;18.806;2024-01-11T06:08:04;41.17;;;19.12;;
68300;SDS011;55146;47.468;18.806;2024-01-11T06:10:30;41.05;;;22.05;;
68300;SDS011;55146;47.468;18.806;2024-01-11T06:12:56;46.83;;;21.70;;
68300;SDS011;55146;47.468;18.806;2024-01-11T06:15:21;45.28;;;20.95;;
68300;SDS011;55146;47.468;18.806;2024-01-11T06:17:47;45.90;;;23.20;;
68300;SDS011;55146;47.468;18.806;2024-01-11T06:20:12;50.83;;;23.07;;
68300;SDS011;55146;47.468;18.806;2024-01-11T06:22:37;45.25;;;22.80;;
68300;SDS011;55146;47.468;18.806;2024-01-11T06:25:03;40.75;;;19.23;;
68300;SDS011;55146;47.468;18.806;2024-01-11T06:27:29;44.30;;;22.80;;
68300;SDS011;55146;47.468;18.806;2024-01-11T06:29:54;47.10;;;22.13;;
68300;SDS011;55146;47.468;18.806;2024-01-11T06:32:19;42.90;;;22.37;;
68300;SDS011;55146;47.468;18.806;2024-01-11T06:34:45;45.53;;;21.95;;
68300;SDS011;55146;47.468;18.806;2024-01-11T06:37:11;50.20;;;23.77;;
68300;SDS011;55146;47.468;18.806;2024-01-11T06:39:37;46.05;;;22.37;;
68300;SDS011;55146;47.468;18.806;2024-01-11T06:42:02;46.37;;;23.33;;
68300;SDS011;55146;47.468;18.806;2024-01-11T06:44:28;47.67;;;23.62;;
68300;SDS011;55146;47.468;18.806;2024-01-11T06:46:53;44.63;;;21.63;;
68300;SDS011;55146;47.468;18.806;2024-01-11T06:49:19;45.33;;;21.33;;
68300;SDS011;55146;47.468;18.806;2024-01-11T06:51:44;46.37;;;22.63;;
68300;SDS011;55146;47.468;18.806;2024-01-11T06:54:09;41.00;;;21.57;;
68300;SDS011;55146;47.468;18.806;2024-01-11T06:56:35;50.57;;;21.63;;
68300;SDS011;55146;47.468;18.806;2024-01-11T06:59:01;45.85;;;23.83;;
68300;SDS011;55146;47.468;18.806;2024-01-11T07:01:26;45.47;;;22.03;;
68300;SDS011;55146;47.468;18.806;2024-01-11T07:03:52;49.67;;;25.27;;
68300;SDS011;55146;47.468;18.806;2024-01-11T07:06:17;45.13;;;23.30;;
68300;SDS011;55146;47.468;18.806;2024-01-11T07:08:42;51.60;;;23.70;;
68300;SDS011;55146;47.468;18.806;2024-01-11T07:11:08;50.10;;;24.43;;
68300;SDS011;55146;47.468;18.806;2024-01-11T07:13:33;47.40;;;24.40;;
68300;SDS011;55146;47.468;18.806;2024-01-11T07:15:58;46.70;;;22.50;;
68300;SDS011;55146;47.468;18.806;2024-01-11T07:18:25;46.35;;;25.02;;
68300;SDS011;55146;47.468;18.806;2024-01-11T07:20:51;49.65;;;24.35;;
68300;SDS011;55146;47.468;18.806;2024-01-11T07:23:17;48.95;;;26.02;;
68300;SDS011;55146;47.468;18.806;2024-01-11T07:25:43;53.43;;;25.80;;
68300;SDS011;55146;47.468;18.806;2024-01-11T07:28:08;52.53;;;26.47;;
68300;SDS011;55146;47.468;18.806;2024-01-11T07:30:34;48.53;;;26.07;;
68300;SDS011;55146;47.468;18.806;2024-01-11T07:32:59;44.92;;;24.87;;
68300;SDS011;55146;47.468;18.806;2024-01-11T07:35:25;54.07;;;27.00;;
68300;SDS011;55146;47.468;18.806;2024-01-11T07:37:50;60.23;;;30.07;;
68300;SDS011;55146;47.468;18.806;2024-01-11T07:40:16;54.97;;;27.67;;
68300;SDS011;55146;47.468;18.806;2024-01-11T07:42:42;56.60;;;29.17;;
68300;SDS011;55146;47.468;18.806;2024-01-11T07:45:08;61.13;;;29.63;;
68300;SDS011;55146;47.468;18.806;2024-01-11T07:47:35;66.80;;;31.62;;
68300;SDS011;55146;47.468;18.806;2024-01-11T07:50:02;58.00;;;30.73;;
68300;SDS011;55146;47.468;18.806;2024-01-11T07:52:29;68.20;;;29.60;;
68300;SDS011;55146;47.468;18.806;2024-01-11T07:54:54;64.65;;;32.15;;
68300;SDS011;55146;47.468;18.806;2024-01-11T07:57:19;57.47;;;31.10;;
68300;SDS011;55146;47.468;18.806;2024-01-11T07:59:45;65.43;;;30.30;;
68300;SDS011;55146;47.468;18.806;2024-01-11T08:02:10;71.03;;;31.30;;
68300;SDS011;55146;47.468;18.806;2024-01-11T08:04:35;50.00;;;26.43;;
68300;SDS011;55146;47.468;18.806;2024-01-11T08:07:03;53.25;;;24.12;;
68300;SDS011;55146;47.468;18.806;2024-01-11T08:09:29;44.60;;;23.40;;
68300;SDS011;55146;47.468;18.806;2024-01-11T08:11:54;51.10;;;25.67;;
68300;SDS011;55146;47.468;18.806;2024-01-11T08:14:20;59.00;;;30.30;;
68300;SDS011;55146;47.468;18.806;2024-01-11T08:16:46;49.63;;;25.55;;
68300;SDS011;55146;47.468;18.806;2024-01-11T08:19:11;57.53;;;26.43;;
68300;SDS011;55146;47.468;18.806;2024-01-11T08:21:38;52.72;;;25.27;;
68300;SDS011;55146;47.468;18.806;2024-01-11T08:24:04;62.88;;;29.17;;
68300;SDS011;55146;47.468;18.806;2024-01-11T08:26:30;51.57;;;25.90;;
68300;SDS011;55146;47.468;18.806;2024-01-11T08:28:56;49.58;;;26.00;;
68300;SDS011;55146;47.468;18.806;2024-01-11T08:31:21;54.07;;;29.40;;
68300;SDS011;55146;47.468;18.806;2024-01-11T08:33:46;51.27;;;26.30;;
68300;SDS011;55146;47.468;18.806;2024-01-11T08:36:12;47.47;;;26.27;;
68300;SDS011;55146;47.468;18.806;2024-01-11T08:38:37;45.47;;;23.05;;
68300;SDS011;55146;47.468;18.806;2024-01-11T08:41:03;43.50;;;22.97;;
68300;SDS011;55146;47.468;18.806;2024-01-11T08:43:29;43.50;;;23.30;;
68300;SDS011;55146;47.468;18.806;2024-01-11T08:45:54;44.43;;;25.93;;
68300;SDS011;55146;47.468;18.806;2024-01-11T08:48:20;44.53;;;25.17;;
68300;SDS011;55146;47.468;18.806;2024-01-11T08:50:46;45.88;;;24.02;;
68300;SDS011;55146;47.468;18.806;2024-01-11T08:53:11;47.40;;;23.07;;
68300;SDS011;55146;47.468;18.806;2024-01-11T08:55:37;40.20;;;22.37;;
68300;SDS011;55146;47.468;18.806;2024-01-11T08:58:02;45.80;;;23.15;;
68300;SDS011;55146;47.468;18.806;2024-01-11T09:00:29;42.53;;;24.03;;
68300;SDS011;55146;47.468;18.806;2024-01-11T09:02:54;45.10;;;23.27;;
68300;SDS011;55146;47.468;18.806;2024-01-11T09:05:20;50.93;;;26.53;;
68300;SDS011;55146;47.468;18.806;2024-01-11T09:07:46;44.78;;;24.85;;
68300;SDS011;55146;47.468;18.806;2024-01-11T09:10:12;47.83;;;24.27;;
68300;SDS011;55146;47.468;18.806;2024-01-11T09:12:37;39.30;;;21.73;;
68300;SDS011;55146;47.468;18.806;2024-01-11T09:15:03;48.37;;;24.27;;
68300;SDS011;55146;47.468;18.806;2024-01-11T09:17:28;41.75;;;21.33;;
68300;SDS011;55146;47.468;18.806;2024-01-11T09:19:54;41.17;;;21.53;;
68300;SDS011;55146;47.468;18.806;2024-01-11T09:22:19;42.43;;;21.47;;
68300;SDS011;55146;47.468;18.806;2024-01-11T09:24:45;43.70;;;23.40;;
68300;SDS011;55146;47.468;18.806;2024-01-11T09:27:10;43.58;;;20.75;;
68300;SDS011;55146;47.468;18.806;2024-01-11T09:29:35;39.20;;;21.55;;
68300;SDS011;55146;47.468;18.806;2024-01-11T09:32:01;43.27;;;24.30;;
68300;SDS011;55146;47.468;18.806;2024-01-11T09:34:26;43.27;;;21.67;;
68300;SDS011;55146;47.468;18.806;2024-01-11T09:36:52;38.60;;;20.67;;
68300;SDS011;55146;47.468;18.806;2024-01-11T09:39:17;38.97;;;23.87;;
68300;SDS011;55146;47.468;18.806;2024-01-11T09:41:58;37.20;;;21.00;;
68300;SDS011;55146;47.468;18.806;2024-01-11T09:44:28;36.67;;;20.83;;
68300;SDS011;55146;47.468;18.806;2024-01-11T09:46:54;43.83;;;22.33;;
68300;SDS011;55146;47.468;18.806;2024-01-11T09:49:21;44.27;;;24.53;;
68300;SDS011;55146;47.468;18.806;2024-01-11T09:51:47;39.95;;;21.92;;
68300;SDS011;55146;47.468;18.806;2024-01-11T09:54:14;38.80;;;20.85;;
68300;SDS011;55146;47.468;18.806;2024-01-11T09:56:40;34.13;;;18.00;;
68300;SDS011;55146;47.468;18.806;2024-01-11T09:59:06;38.92;;;19.08;;
68300;SDS011;55146;47.468;18.806;2024-01-11T10:01:34;39.92;;;19.40;;
68300;SDS011;55146;47.468;18.806;2024-01-11T10:04:00;40.97;;;18.67;;
68300;SDS011;55146;47.468;18.806;2024-01-11T10:06:28;37.55;;;19.70;;
68300;SDS011;55146;47.468;18.806;2024-01-11T10:08:58;46.45;;;23.05;;
68300;SDS011;55146;47.468;18.806;2024-01-11T10:11:23;37.00;;;18.60;;
68300;SDS011;55146;47.468;18.806;2024-01-11T10:13:51;31.00;;;16.50;;
68300;SDS011;55146;47.468;18.806;2024-01-11T10:16:21;27.33;;;14.73;;
68300;SDS011;55146;47.468;18.806;2024-01-11T10:18:46;28.00;;;15.57;;
68300;SDS011;55146;47.468;18.806;2024-01-11T10:21:12;30.87;;;15.30;;
68300;SDS011;55146;47.468;18.806;2024-01-11T10:23:37;30.30;;;18.60;;
68300;SDS011;55146;47.468;18.806;2024-01-11T10:26:04;27.57;;;14.53;;
68300;SDS011;55146;47.468;18.806;2024-01-11T10:28:29;24.75;;;14.60;;
68300;SDS011;55146;47.468;18.806;2024-01-11T10:30:55;26.57;;;14.47;;
68300;SDS011;55146;47.468;18.806;2024-01-11T10:33:22;29.55;;;15.82;;
68300;SDS011;55146;47.468;18.806;2024-01-11T10:35:50;25.88;;;14.70;;
68300;SDS011;55146;47.468;18.806;2024-01-11T10:38:16;29.17;;;15.55;;
68300;SDS011;55146;47.468;18.806;2024-01-11T10:40:42;26.30;;;15.03;;
68300;SDS011;55146;47.468;18.806;2024-01-11T10:43:09;35.97;;;19.17;;
68300;SDS011;55146;47.468;18.806;2024-01-11T10:45:40;90.93;;;48.17;;
68300;SDS011;55146;47.468;18.806;2024-01-11T10:48:07;59.75;;;35.47;;
68300;SDS011;55146;47.468;18.806;2024-01-11T10:50:38;37.00;;;18.97;;
68300;SDS011;55146;47.468;18.806;2024-01-11T10:56:01;39.55;;;23.83;;
68300;SDS011;55146;47.468;18.806;2024-01-11T10:58:29;32.38;;;19.42;;
68300;SDS011;55146;47.468;18.806;2024-01-11T11:00:56;30.10;;;15.85;;
68300;SDS011;55146;47.468;18.806;2024-01-11T11:03:24;33.50;;;17.87;;
68300;SDS011;55146;47.468;18.806;2024-01-11T11:05:52;28.12;;;14.75;;
68300;SDS011;55146;47.468;18.806;2024-01-11T11:08:18;26.33;;;14.80;;
68300;SDS011;55146;47.468;18.806;2024-01-11T11:10:45;22.90;;;12.70;;
68300;SDS011;55146;47.468;18.806;2024-01-11T11:13:13;27.77;;;16.50;;
68300;SDS011;55146;47.468;18.806;2024-01-11T11:15:40;31.80;;;17.83;;
68300;SDS011;55146;47.468;18.806;2024-01-11T11:18:11;29.77;;;14.52;;
68300;SDS011;55146;47.468;18.806;2024-01-11T11:20:38;29.85;;;16.48;;
68300;SDS011;55146;47.468;18.806;2024-01-11T11:23:07;27.87;;;15.48;;
68300;SDS011;55146;47.468;18.806;2024-01-11T11:25:42;32.70;;;18.30;;
68300;SDS011;55146;47.468;18.806;2024-01-11T11:28:11;33.70;;;18.77;;
68300;SDS011;55146;47.468;18.806;2024-01-11T11:30:37;38.15;;;22.95;;
68300;SDS011;55146;47.468;18.806;2024-01-11T11:33:15;30.85;;;17.75;;
68300;SDS011;55146;47.468;18.806;2024-01-11T11:35:40;33.20;;;15.75;;
68300;SDS011;55146;47.468;18.806;2024-01-11T11:38:07;31.85;;;17.52;;
68300;SDS011;55146;47.468;18.806;2024-01-11T11:40:37;29.87;;;16.40;;
68300;SDS011;55146;47.468;18.806;2024-01-11T11:43:05;30.62;;;16.35;;
68300;SDS011;55146;47.468;18.806;2024-01-11T11:45:31;29.73;;;16.67;;
68300;SDS011;55146;47.468;18.806;2024-01-11T11:47:57;34.47;;;17.58;;
68300;SDS011;55146;47.468;18.806;2024-01-11T11:50:23;32.03;;;18.85;;
68300;SDS011;55146;47.468;18.806;2024-01-11T11:52:53;39.03;;;20.63;;
68300;SDS011;55146;47.468;18.806;2024-01-11T11:55:23;32.13;;;16.77;;
68300;SDS011;55146;47.468;18.806;2024-01-11T11:57:52;32.13;;;18.45;;
68300;SDS011;55146;47.468;18.806;2024-01-11T12:00:19;33.95;;;18.05;;
68300;SDS011;55146;47.468;18.806;2024-01-11T12:02:46;32.15;;;17.62;;
68300;SDS011;55146;47.468;18.806;2024-01-11T12:05:12;27.87;;;16.02;;
68300;SDS011;55146;47.468;18.806;2024-01-11T12:07:38;27.60;;;15.67;;
68300;SDS011;55146;47.468;18.806;2024-01-11T12:10:04;30.10;;;15.17;;
68300;SDS011;55146;47.468;18.806;2024-01-11T12:12:30;25.75;;;14.57;;
68300;SDS011;55146;47.468;18.806;2024-01-11T12:14:55;28.05;;;15.68;;
68300;SDS011;55146;47.468;18.806;2024-01-11T12:17:23;29.60;;;14.98;;
68300;SDS011;55146;47.468;18.806;2024-01-11T12:19:49;29.27;;;15.87;;
68300;SDS011;55146;47.468;18.806;2024-01-11T12:22:16;29.33;;;15.77;;
68300;SDS011;55146;47.468;18.806;2024-01-11T12:24:42;33.78;;;16.65;;
68300;SDS011;55146;47.468;18.806;2024-01-11T12:27:07;27.60;;;15.40;;
68300;SDS011;55146;47.468;18.806;2024-01-11T12:29:33;26.50;;;15.07;;
68300;SDS011;55146;47.468;18.806;2024-01-11T12:31:58;28.53;;;16.33;;
68300;SDS011;55146;47.468;18.806;2024-01-11T12:34:25;28.58;;;16.15;;
68300;SDS011;55146;47.468;18.806;2024-01-11T12:36:52;28.25;;;15.40;;
68300;SDS011;55146;47.468;18.806;2024-01-11T12:39:18;26.55;;;13.82;;
68300;SDS011;55146;47.468;18.806;2024-01-11T12:41:44;26.02;;;15.60;;
68300;SDS011;55146;47.468;18.806;2024-01-11T12:44:09;40.27;;;18.07;;
68300;SDS011;55146;47.468;18.806;2024-01-11T12:46:35;31.80;;;15.33;;
68300;SDS011;55146;47.468;18.806;2024-01-11T12:49:00;22.17;;;11.80;;
68300;SDS011;55146;47.468;18.806;2024-01-11T12:51:26;23.27;;;13.70;;
68300;SDS011;55146;47.468;18.806;2024-01-11T12:53:52;25.23;;;14.10;;
68300;SDS011;55146;47.468;18.806;2024-01-11T12:56:18;25.75;;;14.87;;
68300;SDS011;55146;47.468;18.806;2024-01-11T12:58:46;37.13;;;21.87;;
68300;SDS011;55146;47.468;18.806;2024-01-11T13:01:12;28.93;;;17.17;;
68300;SDS011;55146;47.468;18.806;2024-01-11T13:03:39;21.87;;;12.30;;
68300;SDS011;55146;47.468;18.806;2024-01-11T13:06:08;28.60;;;15.10;;
68300;SDS011;55146;47.468;18.806;2024-01-11T13:08:34;24.15;;;12.57;;
68300;SDS011;55146;47.468;18.806;2024-01-11T13:11:01;23.75;;;12.93;;
68300;SDS011;55146;47.468;18.806;2024-01-11T13:13:31;24.63;;;13.65;;
68300;SDS011;55146;47.468;18.806;2024-01-11T13:16:00;23.92;;;14.43;;
68300;SDS011;55146;47.468;18.806;2024-01-11T13:18:25;24.00;;;12.57;;
68300;SDS011;55146;47.468;18.806;2024-01-11T13:20:51;23.23;;;12.70;;
68300;SDS011;55146;47.468;18.806;2024-01-11T13:25:46;22.35;;;12.57;;
68300;SDS011;55146;47.468;18.806;2024-01-11T13:28:13;20.17;;;11.27;;
68300;SDS011;55146;47.468;18.806;2024-01-11T13:30:42;17.62;;;11.25;;
68300;SDS011;55146;47.468;18.806;2024-01-11T13:33:08;19.80;;;11.68;;
68300;SDS011;55146;47.468;18.806;2024-01-11T13:35:38;20.98;;;11.93;;
68300;SDS011;55146;47.468;18.806;2024-01-11T13:38:05;18.12;;;11.90;;
68300;SDS011;55146;47.468;18.806;2024-01-11T13:40:31;21.58;;;12.32;;
68300;SDS011;55146;47.468;18.806;2024-01-11T13:42:57;20.80;;;12.63;;
68300;SDS011;55146;47.468;18.806;2024-01-11T13:45:23;22.95;;;11.65;;
68300;SDS011;55146;47.468;18.806;2024-01-11T13:47:49;20.87;;;11.67;;
68300;SDS011;55146;47.468;18.806;2024-01-11T13:50:15;23.08;;;11.73;;
68300;SDS011;55146;47.468;18.806;2024-01-11T13:52:41;21.08;;;12.10;;
68300;SDS011;55146;47.468;18.806;2024-01-11T13:55:07;26.80;;;13.07;;
68300;SDS011;55146;47.468;18.806;2024-01-11T13:57:36;25.42;;;11.23;;
68300;SDS011;55146;47.468;18.806;2024-01-11T14:00:02;20.45;;;10.70;;
68300;SDS011;55146;47.468;18.806;2024-01-11T14:02:31;20.12;;;12.37;;
68300;SDS011;55146;47.468;18.806;2024-01-11T14:04:57;21.87;;;11.23;;
68300;SDS011;55146;47.468;18.806;2024-01-11T14:07:22;22.15;;;12.65;;